Terminal Aerodrome Forecast
Issued by NWS

Home | Current Version | Previous Version | Text Only | Print | Product List | Glossary On
Versions: 1 2 3 4 5 6 7 8 9 10 11 12 13 14 15 16 17 18 19 20 21 22 23 24 25 26 27 28 29 30 31 32
000
FTUS44 KLZK 241416 AAB
TAFHRO
TAF AMD
KHRO 241416Z 2414/2512 14008KT 1/4SM FG VCSH VV002
      TEMPO 2414/2418 1SM -SHRA BR OVC005
     FM241800 17009KT 3SM SHRA BR VCTS OVC007CB
     FM242100 22008KT P6SM VCSH OVC012
     FM250100 26010G18KT P6SM SCT020 BKN250
     FM250800 28007KT P6SM SCT250=

USA.gov is the U.S. government's official web portal to all federal, state and local government web resources and services.